sensor_id;sensor_type;location;lat;lon;timestamp;P1;durP1;ratioP1;P2;durP2;ratioP2
50495;SDS011;38806;51.554;5.704;2023-05-18T00:00:56;9.27;;;4.70;;
50495;SDS011;38806;51.554;5.704;2023-05-18T00:02:58;16.65;;;5.32;;
50495;SDS011;38806;51.554;5.704;2023-05-18T00:04:58;12.00;;;4.82;;
50495;SDS011;38806;51.554;5.704;2023-05-18T00:07:01;8.15;;;4.57;;
50495;SDS011;38806;51.554;5.704;2023-05-18T00:09:04;11.43;;;5.20;;
50495;SDS011;38806;51.554;5.704;2023-05-18T00:11:05;10.43;;;5.20;;
50495;SDS011;38806;51.554;5.704;2023-05-18T00:13:05;12.57;;;4.40;;
50495;SDS011;38806;51.554;5.704;2023-05-18T00:15:07;11.38;;;4.32;;
50495;SDS011;38806;51.554;5.704;2023-05-18T00:17:08;12.10;;;5.00;;
50495;SDS011;38806;51.554;5.704;2023-05-18T00:19:09;15.90;;;4.80;;
50495;SDS011;38806;51.554;5.704;2023-05-18T00:21:09;17.08;;;5.18;;
50495;SDS011;38806;51.554;5.704;2023-05-18T00:23:09;8.13;;;4.82;;
50495;SDS011;38806;51.554;5.704;2023-05-18T00:25:15;12.90;;;4.20;;
50495;SDS011;38806;51.554;5.704;2023-05-18T00:27:15;14.65;;;5.32;;
50495;SDS011;38806;51.554;5.704;2023-05-18T00:29:15;10.32;;;5.13;;
50495;SDS011;38806;51.554;5.704;2023-05-18T00:31:15;36.60;;;7.20;;
50495;SDS011;38806;51.554;5.704;2023-05-18T00:33:16;15.85;;;5.47;;
50495;SDS011;38806;51.554;5.704;2023-05-18T00:35:16;18.80;;;7.10;;
50495;SDS011;38806;51.554;5.704;2023-05-18T00:37:16;9.40;;;4.70;;
50495;SDS011;38806;51.554;5.704;2023-05-18T00:39:16;16.30;;;4.78;;
50495;SDS011;38806;51.554;5.704;2023-05-18T00:41:16;8.45;;;6.28;;
50495;SDS011;38806;51.554;5.704;2023-05-18T00:43:17;13.23;;;5.35;;
50495;SDS011;38806;51.554;5.704;2023-05-18T00:45:17;9.57;;;5.03;;
50495;SDS011;38806;51.554;5.704;2023-05-18T00:47:17;13.05;;;6.68;;
50495;SDS011;38806;51.554;5.704;2023-05-18T00:49:20;13.98;;;5.13;;
50495;SDS011;38806;51.554;5.704;2023-05-18T00:51:21;14.80;;;7.57;;
50495;SDS011;38806;51.554;5.704;2023-05-18T00:53:22;10.70;;;5.93;;
50495;SDS011;38806;51.554;5.704;2023-05-18T00:55:22;12.18;;;5.38;;
50495;SDS011;38806;51.554;5.704;2023-05-18T00:57:22;14.75;;;6.18;;
50495;SDS011;38806;51.554;5.704;2023-05-18T00:59:23;12.65;;;5.72;;
50495;SDS011;38806;51.554;5.704;2023-05-18T01:01:32;10.02;;;5.07;;
50495;SDS011;38806;51.554;5.704;2023-05-18T01:03:36;14.60;;;4.68;;
50495;SDS011;38806;51.554;5.704;2023-05-18T01:05:40;13.30;;;6.43;;
50495;SDS011;38806;51.554;5.704;2023-05-18T01:07:41;9.63;;;6.10;;
50495;SDS011;38806;51.554;5.704;2023-05-18T01:09:42;15.43;;;6.68;;
50495;SDS011;38806;51.554;5.704;2023-05-18T01:14:02;13.05;;;6.25;;
50495;SDS011;38806;51.554;5.704;2023-05-18T01:16:04;11.10;;;5.22;;
50495;SDS011;38806;51.554;5.704;2023-05-18T01:18:10;16.65;;;6.15;;
50495;SDS011;38806;51.554;5.704;2023-05-18T01:20:21;12.40;;;5.68;;
50495;SDS011;38806;51.554;5.704;2023-05-18T01:22:32;12.85;;;5.53;;
50495;SDS011;38806;51.554;5.704;2023-05-18T01:24:43;17.85;;;6.05;;
50495;SDS011;38806;51.554;5.704;2023-05-18T01:26:47;14.68;;;5.55;;
50495;SDS011;38806;51.554;5.704;2023-05-18T01:28:49;16.02;;;6.50;;
50495;SDS011;38806;51.554;5.704;2023-05-18T01:30:50;13.45;;;6.32;;
50495;SDS011;38806;51.554;5.704;2023-05-18T01:32:51;16.38;;;6.60;;
50495;SDS011;38806;51.554;5.704;2023-05-18T01:34:51;11.18;;;6.38;;
50495;SDS011;38806;51.554;5.704;2023-05-18T01:36:51;22.33;;;9.27;;
50495;SDS011;38806;51.554;5.704;2023-05-18T01:38:51;12.55;;;5.22;;
50495;SDS011;38806;51.554;5.704;2023-05-18T01:42:54;11.13;;;6.30;;
50495;SDS011;38806;51.554;5.704;2023-05-18T01:44:57;21.40;;;6.97;;
50495;SDS011;38806;51.554;5.704;2023-05-18T01:47:09;13.00;;;7.05;;
50495;SDS011;38806;51.554;5.704;2023-05-18T01:49:53;12.85;;;7.03;;
50495;SDS011;38806;51.554;5.704;2023-05-18T01:51:35;15.75;;;8.38;;
50495;SDS011;38806;51.554;5.704;2023-05-18T01:53:38;17.20;;;7.18;;
50495;SDS011;38806;51.554;5.704;2023-05-18T01:55:38;19.67;;;10.13;;
50495;SDS011;38806;51.554;5.704;2023-05-18T01:57:40;15.25;;;8.02;;
50495;SDS011;38806;51.554;5.704;2023-05-18T01:59:41;22.40;;;7.55;;
50495;SDS011;38806;51.554;5.704;2023-05-18T02:01:41;24.80;;;6.97;;
50495;SDS011;38806;51.554;5.704;2023-05-18T02:03:42;16.63;;;7.63;;
50495;SDS011;38806;51.554;5.704;2023-05-18T02:05:42;14.88;;;6.68;;
50495;SDS011;38806;51.554;5.704;2023-05-18T02:07:42;23.52;;;8.18;;
50495;SDS011;38806;51.554;5.704;2023-05-18T02:09:46;16.52;;;7.72;;
50495;SDS011;38806;51.554;5.704;2023-05-18T02:11:46;16.02;;;6.88;;
50495;SDS011;38806;51.554;5.704;2023-05-18T02:13:47;15.85;;;7.72;;
50495;SDS011;38806;51.554;5.704;2023-05-18T02:15:47;10.77;;;6.28;;
50495;SDS011;38806;51.554;5.704;2023-05-18T02:17:47;11.82;;;7.35;;
50495;SDS011;38806;51.554;5.704;2023-05-18T02:19:47;14.77;;;6.80;;
50495;SDS011;38806;51.554;5.704;2023-05-18T02:21:47;14.30;;;8.77;;
50495;SDS011;38806;51.554;5.704;2023-05-18T02:23:48;18.48;;;8.77;;
50495;SDS011;38806;51.554;5.704;2023-05-18T02:25:48;16.27;;;6.57;;
50495;SDS011;38806;51.554;5.704;2023-05-18T02:27:48;19.70;;;8.25;;
50495;SDS011;38806;51.554;5.704;2023-05-18T02:29:49;17.92;;;6.55;;
50495;SDS011;38806;51.554;5.704;2023-05-18T02:31:50;14.32;;;7.57;;
50495;SDS011;38806;51.554;5.704;2023-05-18T02:33:50;12.23;;;6.53;;
50495;SDS011;38806;51.554;5.704;2023-05-18T02:35:51;30.63;;;7.20;;
50495;SDS011;38806;51.554;5.704;2023-05-18T02:37:52;13.52;;;7.47;;
50495;SDS011;38806;51.554;5.704;2023-05-18T02:39:52;17.55;;;7.25;;
50495;SDS011;38806;51.554;5.704;2023-05-18T02:41:52;18.92;;;6.85;;
50495;SDS011;38806;51.554;5.704;2023-05-18T02:43:53;13.88;;;6.53;;
50495;SDS011;38806;51.554;5.704;2023-05-18T02:45:53;14.27;;;6.57;;
50495;SDS011;38806;51.554;5.704;2023-05-18T02:47:53;18.35;;;6.55;;
50495;SDS011;38806;51.554;5.704;2023-05-18T02:49:53;10.27;;;7.43;;
50495;SDS011;38806;51.554;5.704;2023-05-18T02:51:54;17.17;;;9.63;;
50495;SDS011;38806;51.554;5.704;2023-05-18T02:53:54;15.45;;;6.75;;
50495;SDS011;38806;51.554;5.704;2023-05-18T02:55:54;14.80;;;8.55;;
50495;SDS011;38806;51.554;5.704;2023-05-18T02:57:57;16.23;;;7.63;;
50495;SDS011;38806;51.554;5.704;2023-05-18T02:59:58;18.13;;;9.88;;
50495;SDS011;38806;51.554;5.704;2023-05-18T03:01:59;21.75;;;8.65;;
50495;SDS011;38806;51.554;5.704;2023-05-18T03:03:59;19.08;;;8.35;;
50495;SDS011;38806;51.554;5.704;2023-05-18T03:06:00;20.65;;;7.60;;
50495;SDS011;38806;51.554;5.704;2023-05-18T03:08:01;16.52;;;7.47;;
50495;SDS011;38806;51.554;5.704;2023-05-18T03:10:02;18.15;;;9.45;;
50495;SDS011;38806;51.554;5.704;2023-05-18T03:12:02;16.95;;;7.45;;
50495;SDS011;38806;51.554;5.704;2023-05-18T03:14:03;17.08;;;7.75;;
50495;SDS011;38806;51.554;5.704;2023-05-18T03:16:03;16.60;;;7.13;;
50495;SDS011;38806;51.554;5.704;2023-05-18T03:18:04;16.27;;;7.80;;
50495;SDS011;38806;51.554;5.704;2023-05-18T03:20:04;16.40;;;7.70;;
50495;SDS011;38806;51.554;5.704;2023-05-18T03:22:05;12.70;;;7.53;;
50495;SDS011;38806;51.554;5.704;2023-05-18T03:24:06;19.35;;;7.30;;
50495;SDS011;38806;51.554;5.704;2023-05-18T03:26:06;17.45;;;7.93;;
50495;SDS011;38806;51.554;5.704;2023-05-18T03:28:10;13.48;;;6.78;;
50495;SDS011;38806;51.554;5.704;2023-05-18T03:30:10;16.08;;;8.35;;
50495;SDS011;38806;51.554;5.704;2023-05-18T03:32:10;15.02;;;7.47;;
50495;SDS011;38806;51.554;5.704;2023-05-18T03:34:11;17.02;;;8.40;;
50495;SDS011;38806;51.554;5.704;2023-05-18T03:36:11;16.52;;;7.10;;
50495;SDS011;38806;51.554;5.704;2023-05-18T03:38:11;15.80;;;8.02;;
50495;SDS011;38806;51.554;5.704;2023-05-18T03:40:12;14.10;;;9.48;;
50495;SDS011;38806;51.554;5.704;2023-05-18T03:42:13;14.95;;;6.45;;
50495;SDS011;38806;51.554;5.704;2023-05-18T03:44:13;14.45;;;7.85;;
50495;SDS011;38806;51.554;5.704;2023-05-18T03:46:13;13.85;;;6.38;;
50495;SDS011;38806;51.554;5.704;2023-05-18T03:48:14;14.57;;;7.72;;
50495;SDS011;38806;51.554;5.704;2023-05-18T03:50:14;13.45;;;7.10;;
50495;SDS011;38806;51.554;5.704;2023-05-18T03:52:15;12.20;;;7.40;;
50495;SDS011;38806;51.554;5.704;2023-05-18T03:54:21;21.00;;;7.90;;
50495;SDS011;38806;51.554;5.704;2023-05-18T03:56:21;15.57;;;6.28;;
50495;SDS011;38806;51.554;5.704;2023-05-18T03:58:22;15.40;;;7.95;;
50495;SDS011;38806;51.554;5.704;2023-05-18T04:00:22;16.52;;;7.75;;
50495;SDS011;38806;51.554;5.704;2023-05-18T04:02:22;15.90;;;7.05;;
50495;SDS011;38806;51.554;5.704;2023-05-18T04:04:23;16.42;;;8.35;;
50495;SDS011;38806;51.554;5.704;2023-05-18T04:06:26;22.55;;;8.75;;
50495;SDS011;38806;51.554;5.704;2023-05-18T04:08:26;18.85;;;7.47;;
50495;SDS011;38806;51.554;5.704;2023-05-18T04:10:29;13.18;;;7.32;;
50495;SDS011;38806;51.554;5.704;2023-05-18T04:12:29;18.25;;;8.40;;
50495;SDS011;38806;51.554;5.704;2023-05-18T04:14:29;12.60;;;7.22;;
50495;SDS011;38806;51.554;5.704;2023-05-18T04:16:32;18.02;;;8.80;;
50495;SDS011;38806;51.554;5.704;2023-05-18T04:18:32;14.93;;;6.88;;
50495;SDS011;38806;51.554;5.704;2023-05-18T04:20:32;15.63;;;7.45;;
50495;SDS011;38806;51.554;5.704;2023-05-18T04:22:32;18.67;;;7.85;;
50495;SDS011;38806;51.554;5.704;2023-05-18T04:24:35;19.98;;;8.18;;
50495;SDS011;38806;51.554;5.704;2023-05-18T04:26:36;18.67;;;6.70;;
50495;SDS011;38806;51.554;5.704;2023-05-18T04:28:37;18.35;;;8.35;;
50495;SDS011;38806;51.554;5.704;2023-05-18T04:30:37;16.60;;;7.85;;
50495;SDS011;38806;51.554;5.704;2023-05-18T04:32:38;16.55;;;7.68;;
50495;SDS011;38806;51.554;5.704;2023-05-18T04:34:41;19.38;;;8.60;;
50495;SDS011;38806;51.554;5.704;2023-05-18T04:36:41;16.63;;;7.00;;
50495;SDS011;38806;51.554;5.704;2023-05-18T04:38:43;13.48;;;6.95;;
50495;SDS011;38806;51.554;5.704;2023-05-18T04:40:43;18.23;;;7.20;;
50495;SDS011;38806;51.554;5.704;2023-05-18T04:42:43;19.35;;;8.75;;
50495;SDS011;38806;51.554;5.704;2023-05-18T04:44:46;14.13;;;8.00;;
50495;SDS011;38806;51.554;5.704;2023-05-18T04:46:47;16.35;;;8.02;;
50495;SDS011;38806;51.554;5.704;2023-05-18T04:48:49;16.95;;;7.43;;
50495;SDS011;38806;51.554;5.704;2023-05-18T04:50:49;15.82;;;8.45;;
50495;SDS011;38806;51.554;5.704;2023-05-18T04:52:53;12.55;;;6.93;;
50495;SDS011;38806;51.554;5.704;2023-05-18T04:54:56;21.25;;;7.97;;
50495;SDS011;38806;51.554;5.704;2023-05-18T04:56:57;16.63;;;7.18;;
50495;SDS011;38806;51.554;5.704;2023-05-18T04:58:57;13.75;;;7.55;;
50495;SDS011;38806;51.554;5.704;2023-05-18T05:00:58;14.73;;;7.20;;
50495;SDS011;38806;51.554;5.704;2023-05-18T05:02:58;13.35;;;7.22;;
50495;SDS011;38806;51.554;5.704;2023-05-18T05:04:58;13.32;;;6.90;;
50495;SDS011;38806;51.554;5.704;2023-05-18T05:06:58;16.38;;;6.50;;
50495;SDS011;38806;51.554;5.704;2023-05-18T05:08:59;13.70;;;6.65;;
50495;SDS011;38806;51.554;5.704;2023-05-18T05:10:59;15.02;;;8.38;;
50495;SDS011;38806;51.554;5.704;2023-05-18T05:13:00;16.90;;;6.90;;
50495;SDS011;38806;51.554;5.704;2023-05-18T05:15:00;18.52;;;7.40;;
50495;SDS011;38806;51.554;5.704;2023-05-18T05:17:00;15.77;;;7.32;;
50495;SDS011;38806;51.554;5.704;2023-05-18T05:19:00;17.27;;;8.55;;
50495;SDS011;38806;51.554;5.704;2023-05-18T05:21:00;15.30;;;6.50;;
50495;SDS011;38806;51.554;5.704;2023-05-18T05:23:00;17.58;;;6.35;;
50495;SDS011;38806;51.554;5.704;2023-05-18T05:25:01;24.05;;;6.28;;
50495;SDS011;38806;51.554;5.704;2023-05-18T05:27:01;13.25;;;6.38;;
50495;SDS011;38806;51.554;5.704;2023-05-18T05:29:01;12.40;;;6.47;;
50495;SDS011;38806;51.554;5.704;2023-05-18T05:31:01;16.30;;;7.25;;
50495;SDS011;38806;51.554;5.704;2023-05-18T05:33:02;9.52;;;6.03;;
50495;SDS011;38806;51.554;5.704;2023-05-18T05:35:02;13.65;;;5.95;;
50495;SDS011;38806;51.554;5.704;2023-05-18T05:37:03;12.23;;;6.57;;
50495;SDS011;38806;51.554;5.704;2023-05-18T05:39:03;14.85;;;7.35;;
50495;SDS011;38806;51.554;5.704;2023-05-18T05:41:04;14.80;;;6.68;;
50495;SDS011;38806;51.554;5.704;2023-05-18T05:43:04;20.73;;;7.72;;
50495;SDS011;38806;51.554;5.704;2023-05-18T05:45:05;12.90;;;6.40;;
50495;SDS011;38806;51.554;5.704;2023-05-18T05:47:05;12.40;;;6.70;;
50495;SDS011;38806;51.554;5.704;2023-05-18T05:49:06;20.63;;;7.43;;
50495;SDS011;38806;51.554;5.704;2023-05-18T05:51:06;14.20;;;6.60;;
50495;SDS011;38806;51.554;5.704;2023-05-18T05:53:06;13.68;;;6.65;;
50495;SDS011;38806;51.554;5.704;2023-05-18T05:55:06;12.80;;;5.40;;
50495;SDS011;38806;51.554;5.704;2023-05-18T05:57:06;11.07;;;6.15;;
50495;SDS011;38806;51.554;5.704;2023-05-18T05:59:07;16.60;;;6.72;;
50495;SDS011;38806;51.554;5.704;2023-05-18T06:01:07;10.68;;;6.60;;
50495;SDS011;38806;51.554;5.704;2023-05-18T06:03:07;12.10;;;6.05;;
50495;SDS011;38806;51.554;5.704;2023-05-18T06:05:07;22.30;;;7.55;;
50495;SDS011;38806;51.554;5.704;2023-05-18T06:07:07;14.73;;;7.22;;
50495;SDS011;38806;51.554;5.704;2023-05-18T06:09:08;15.48;;;8.45;;
50495;SDS011;38806;51.554;5.704;2023-05-18T06:11:08;19.20;;;10.07;;
50495;SDS011;38806;51.554;5.704;2023-05-18T06:13:08;10.60;;;6.22;;
50495;SDS011;38806;51.554;5.704;2023-05-18T06:15:08;16.30;;;6.13;;
50495;SDS011;38806;51.554;5.704;2023-05-18T06:17:09;11.88;;;6.28;;
50495;SDS011;38806;51.554;5.704;2023-05-18T06:19:09;16.42;;;6.22;;
50495;SDS011;38806;51.554;5.704;2023-05-18T06:21:09;15.90;;;6.45;;
50495;SDS011;38806;51.554;5.704;2023-05-18T06:23:10;17.98;;;5.90;;
50495;SDS011;38806;51.554;5.704;2023-05-18T06:25:10;16.17;;;7.03;;
50495;SDS011;38806;51.554;5.704;2023-05-18T06:27:10;20.40;;;5.97;;
50495;SDS011;38806;51.554;5.704;2023-05-18T06:29:11;11.95;;;5.53;;
50495;SDS011;38806;51.554;5.704;2023-05-18T06:31:11;17.83;;;6.45;;
50495;SDS011;38806;51.554;5.704;2023-05-18T06:33:11;11.85;;;6.07;;
50495;SDS011;38806;51.554;5.704;2023-05-18T06:35:13;13.13;;;6.10;;
50495;SDS011;38806;51.554;5.704;2023-05-18T06:37:13;11.75;;;6.32;;
50495;SDS011;38806;51.554;5.704;2023-05-18T06:39:13;12.45;;;6.15;;
50495;SDS011;38806;51.554;5.704;2023-05-18T06:41:13;9.85;;;5.03;;
50495;SDS011;38806;51.554;5.704;2023-05-18T06:43:14;13.32;;;6.05;;
50495;SDS011;38806;51.554;5.704;2023-05-18T06:45:14;16.30;;;6.15;;
50495;SDS011;38806;51.554;5.704;2023-05-18T06:47:15;10.57;;;5.30;;
50495;SDS011;38806;51.554;5.704;2023-05-18T06:49:15;16.70;;;8.07;;
50495;SDS011;38806;51.554;5.704;2023-05-18T06:51:15;13.23;;;4.80;;
50495;SDS011;38806;51.554;5.704;2023-05-18T06:53:15;13.02;;;5.60;;
50495;SDS011;38806;51.554;5.704;2023-05-18T06:55:16;19.60;;;6.55;;
50495;SDS011;38806;51.554;5.704;2023-05-18T06:57:16;11.45;;;6.05;;
50495;SDS011;38806;51.554;5.704;2023-05-18T06:59:17;12.07;;;5.10;;
50495;SDS011;38806;51.554;5.704;2023-05-18T07:01:17;13.02;;;5.85;;
50495;SDS011;38806;51.554;5.704;2023-05-18T07:03:18;13.35;;;5.93;;
50495;SDS011;38806;51.554;5.704;2023-05-18T07:05:18;10.57;;;5.90;;
50495;SDS011;38806;51.554;5.704;2023-05-18T07:07:18;14.38;;;7.38;;
50495;SDS011;38806;51.554;5.704;2023-05-18T07:09:19;10.80;;;4.78;;
50495;SDS011;38806;51.554;5.704;2023-05-18T07:11:19;13.50;;;5.57;;
50495;SDS011;38806;51.554;5.704;2023-05-18T07:13:19;16.95;;;5.65;;
50495;SDS011;38806;51.554;5.704;2023-05-18T07:15:20;11.00;;;5.20;;
50495;SDS011;38806;51.554;5.704;2023-05-18T07:17:20;12.95;;;6.13;;
50495;SDS011;38806;51.554;5.704;2023-05-18T07:19:21;9.27;;;6.05;;
50495;SDS011;38806;51.554;5.704;2023-05-18T07:21:21;12.75;;;7.32;;
50495;SDS011;38806;51.554;5.704;2023-05-18T07:23:21;9.93;;;5.05;;
50495;SDS011;38806;51.554;5.704;2023-05-18T07:25:22;12.32;;;6.10;;
50495;SDS011;38806;51.554;5.704;2023-05-18T07:27:22;14.27;;;5.53;;
50495;SDS011;38806;51.554;5.704;2023-05-18T07:29:23;13.75;;;4.93;;
50495;SDS011;38806;51.554;5.704;2023-05-18T07:31:23;12.32;;;5.43;;
50495;SDS011;38806;51.554;5.704;2023-05-18T07:33:23;12.13;;;5.75;;
50495;SDS011;38806;51.554;5.704;2023-05-18T07:35:23;9.17;;;5.40;;
50495;SDS011;38806;51.554;5.704;2023-05-18T07:37:25;13.75;;;5.65;;
50495;SDS011;38806;51.554;5.704;2023-05-18T07:39:25;25.88;;;6.57;;
50495;SDS011;38806;51.554;5.704;2023-05-18T07:41:28;7.85;;;4.53;;
50495;SDS011;38806;51.554;5.704;2023-05-18T07:43:30;9.52;;;5.03;;
50495;SDS011;38806;51.554;5.704;2023-05-18T07:45:30;15.60;;;6.28;;
50495;SDS011;38806;51.554;5.704;2023-05-18T07:47:31;14.23;;;5.50;;
50495;SDS011;38806;51.554;5.704;2023-05-18T07:49:31;10.90;;;5.35;;
50495;SDS011;38806;51.554;5.704;2023-05-18T07:51:31;8.02;;;5.10;;
50495;SDS011;38806;51.554;5.704;2023-05-18T07:53:31;7.82;;;4.60;;
50495;SDS011;38806;51.554;5.704;2023-05-18T07:55:31;12.37;;;5.27;;
50495;SDS011;38806;51.554;5.704;2023-05-18T07:57:32;9.35;;;4.10;;
50495;SDS011;38806;51.554;5.704;2023-05-18T07:59:33;16.58;;;5.70;;
50495;SDS011;38806;51.554;5.704;2023-05-18T08:01:33;13.52;;;5.05;;
50495;SDS011;38806;51.554;5.704;2023-05-18T08:03:34;9.48;;;4.78;;
50495;SDS011;38806;51.554;5.704;2023-05-18T08:05:34;8.32;;;4.80;;
50495;SDS011;38806;51.554;5.704;2023-05-18T08:07:34;9.30;;;4.88;;
50495;SDS011;38806;51.554;5.704;2023-05-18T08:09:35;8.88;;;4.50;;
50495;SDS011;38806;51.554;5.704;2023-05-18T08:11:35;9.85;;;4.22;;
50495;SDS011;38806;51.554;5.704;2023-05-18T08:13:35;7.50;;;4.57;;
50495;SDS011;38806;51.554;5.704;2023-05-18T08:15:35;12.73;;;5.23;;
50495;SDS011;38806;51.554;5.704;2023-05-18T08:17:36;10.88;;;4.53;;
50495;SDS011;38806;51.554;5.704;2023-05-18T08:19:36;8.73;;;4.57;;
50495;SDS011;38806;51.554;5.704;2023-05-18T08:21:36;8.45;;;4.85;;
50495;SDS011;38806;51.554;5.704;2023-05-18T08:23:37;7.97;;;4.93;;
50495;SDS011;38806;51.554;5.704;2023-05-18T08:25:37;12.82;;;6.00;;
50495;SDS011;38806;51.554;5.704;2023-05-18T08:27:37;10.87;;;4.50;;
50495;SDS011;38806;51.554;5.704;2023-05-18T08:29:38;12.57;;;6.43;;
50495;SDS011;38806;51.554;5.704;2023-05-18T08:31:38;13.00;;;4.80;;
50495;SDS011;38806;51.554;5.704;2023-05-18T08:33:39;11.65;;;5.35;;
50495;SDS011;38806;51.554;5.704;2023-05-18T08:35:39;10.98;;;5.03;;
50495;SDS011;38806;51.554;5.704;2023-05-18T08:37:39;8.82;;;4.95;;
50495;SDS011;38806;51.554;5.704;2023-05-18T08:39:39;12.47;;;5.77;;
50495;SDS011;38806;51.554;5.704;2023-05-18T08:44:02;11.18;;;5.65;;
50495;SDS011;38806;51.554;5.704;2023-05-18T08:46:06;13.93;;;5.13;;
50495;SDS011;38806;51.554;5.704;2023-05-18T08:48:10;11.57;;;4.55;;
50495;SDS011;38806;51.554;5.704;2023-05-18T08:50:10;9.93;;;4.80;;
50495;SDS011;38806;51.554;5.704;2023-05-18T08:52:13;13.20;;;4.63;;
50495;SDS011;38806;51.554;5.704;2023-05-18T08:54:20;9.45;;;4.15;;
50495;SDS011;38806;51.554;5.704;2023-05-18T08:56:21;8.90;;;4.72;;
50495;SDS011;38806;51.554;5.704;2023-05-18T08:58:25;14.48;;;4.22;;
50495;SDS011;38806;51.554;5.704;2023-05-18T09:00:26;10.70;;;4.95;;
50495;SDS011;38806;51.554;5.704;2023-05-18T09:02:26;12.32;;;4.28;;
50495;SDS011;38806;51.554;5.704;2023-05-18T09:04:27;8.63;;;4.55;;
50495;SDS011;38806;51.554;5.704;2023-05-18T09:06:28;11.18;;;4.22;;
50495;SDS011;38806;51.554;5.704;2023-05-18T09:08:29;9.20;;;4.00;;
50495;SDS011;38806;51.554;5.704;2023-05-18T09:10:30;8.73;;;4.40;;
50495;SDS011;38806;51.554;5.704;2023-05-18T09:12:31;10.45;;;4.38;;
50495;SDS011;38806;51.554;5.704;2023-05-18T09:14:32;9.35;;;3.97;;
50495;SDS011;38806;51.554;5.704;2023-05-18T09:16:32;11.88;;;5.13;;
50495;SDS011;38806;51.554;5.704;2023-05-18T09:18:33;9.80;;;5.07;;
50495;SDS011;38806;51.554;5.704;2023-05-18T09:20:33;10.50;;;5.83;;
50495;SDS011;38806;51.554;5.704;2023-05-18T09:22:33;10.98;;;4.88;;
50495;SDS011;38806;51.554;5.704;2023-05-18T09:24:39;11.82;;;4.50;;
50495;SDS011;38806;51.554;5.704;2023-05-18T09:26:40;12.35;;;4.43;;
50495;SDS011;38806;51.554;5.704;2023-05-18T09:28:41;8.73;;;4.88;;
50495;SDS011;38806;51.554;5.704;2023-05-18T09:30:42;8.55;;;3.90;;
50495;SDS011;38806;51.554;5.704;2023-05-18T09:32:42;12.52;;;4.78;;
50495;SDS011;38806;51.554;5.704;2023-05-18T09:34:45;8.27;;;3.80;;
50495;SDS011;38806;51.554;5.704;2023-05-18T09:36:50;9.60;;;3.97;;
50495;SDS011;38806;51.554;5.704;2023-05-18T09:38:53;9.27;;;3.50;;
50495;SDS011;38806;51.554;5.704;2023-05-18T09:40:53;9.30;;;3.67;;
50495;SDS011;38806;51.554;5.704;2023-05-18T09:42:53;9.53;;;4.77;;
50495;SDS011;38806;51.554;5.704;2023-05-18T09:44:54;7.78;;;4.20;;
50495;SDS011;38806;51.554;5.704;2023-05-18T09:46:55;10.95;;;4.30;;
50495;SDS011;38806;51.554;5.704;2023-05-18T09:48:55;14.55;;;5.30;;
50495;SDS011;38806;51.554;5.704;2023-05-18T09:50:57;12.63;;;3.90;;
50495;SDS011;38806;51.554;5.704;2023-05-18T09:52:58;12.02;;;4.85;;
50495;SDS011;38806;51.554;5.704;2023-05-18T09:54:58;8.65;;;4.03;;
50495;SDS011;38806;51.554;5.704;2023-05-18T09:56:59;14.88;;;4.40;;
50495;SDS011;38806;51.554;5.704;2023-05-18T09:59:09;9.10;;;4.35;;
50495;SDS011;38806;51.554;5.704;2023-05-18T10:01:09;7.20;;;4.15;;
50495;SDS011;38806;51.554;5.704;2023-05-18T10:03:16;9.77;;;3.92;;
50495;SDS011;38806;51.554;5.704;2023-05-18T10:05:20;10.03;;;4.07;;
50495;SDS011;38806;51.554;5.704;2023-05-18T10:07:21;10.77;;;3.40;;
50495;SDS011;38806;51.554;5.704;2023-05-18T10:09:21;8.68;;;3.88;;
50495;SDS011;38806;51.554;5.704;2023-05-18T10:11:21;11.57;;;4.17;;
50495;SDS011;38806;51.554;5.704;2023-05-18T10:13:24;12.30;;;5.07;;
50495;SDS011;38806;51.554;5.704;2023-05-18T10:15:24;12.30;;;5.50;;
50495;SDS011;38806;51.554;5.704;2023-05-18T10:17:24;9.18;;;4.85;;
50495;SDS011;38806;51.554;5.704;2023-05-18T10:19:26;13.90;;;5.07;;
50495;SDS011;38806;51.554;5.704;2023-05-18T10:21:27;12.45;;;3.97;;
50495;SDS011;38806;51.554;5.704;2023-05-18T10:23:30;6.57;;;3.72;;
50495;SDS011;38806;51.554;5.704;2023-05-18T10:25:31;10.32;;;4.15;;
50495;SDS011;38806;51.554;5.704;2023-05-18T10:27:33;9.60;;;4.07;;
50495;SDS011;38806;51.554;5.704;2023-05-18T10:29:37;10.02;;;4.15;;
50495;SDS011;38806;51.554;5.704;2023-05-18T10:31:37;8.65;;;4.35;;
50495;SDS011;38806;51.554;5.704;2023-05-18T10:33:38;10.65;;;4.47;;
50495;SDS011;38806;51.554;5.704;2023-05-18T10:35:38;8.15;;;4.35;;
50495;SDS011;38806;51.554;5.704;2023-05-18T10:37:40;7.53;;;4.05;;
50495;SDS011;38806;51.554;5.704;2023-05-18T10:39:42;8.57;;;4.65;;
50495;SDS011;38806;51.554;5.704;2023-05-18T10:41:44;7.85;;;4.10;;
50495;SDS011;38806;51.554;5.704;2023-05-18T10:43:46;8.95;;;4.50;;
50495;SDS011;38806;51.554;5.704;2023-05-18T10:45:47;10.95;;;4.70;;
50495;SDS011;38806;51.554;5.704;2023-05-18T10:47:49;9.48;;;4.05;;
50495;SDS011;38806;51.554;5.704;2023-05-18T10:49:53;7.78;;;5.05;;
50495;SDS011;38806;51.554;5.704;2023-05-18T10:51:53;11.35;;;4.40;;
50495;SDS011;38806;51.554;5.704;2023-05-18T10:53:55;13.25;;;4.85;;
50495;SDS011;38806;51.554;5.704;2023-05-18T10:56:00;7.53;;;5.03;;
50495;SDS011;38806;51.554;5.704;2023-05-18T10:58:03;8.45;;;4.80;;
50495;SDS011;38806;51.554;5.704;2023-05-18T11:00:05;8.50;;;4.28;;
50495;SDS011;38806;51.554;5.704;2023-05-18T11:02:06;8.88;;;4.38;;
50495;SDS011;38806;51.554;5.704;2023-05-18T11:04:08;9.77;;;5.30;;
50495;SDS011;38806;51.554;5.704;2023-05-18T11:06:09;11.73;;;4.13;;
50495;SDS011;38806;51.554;5.704;2023-05-18T11:08:09;8.35;;;4.25;;
50495;SDS011;38806;51.554;5.704;2023-05-18T11:10:10;8.40;;;5.07;;
50495;SDS011;38806;51.554;5.704;2023-05-18T11:12:14;9.63;;;5.55;;
50495;SDS011;38806;51.554;5.704;2023-05-18T11:14:23;11.77;;;4.40;;
50495;SDS011;38806;51.554;5.704;2023-05-18T11:16:24;7.70;;;4.32;;
50495;SDS011;38806;51.554;5.704;2023-05-18T11:20:46;9.57;;;4.72;;
50495;SDS011;38806;51.554;5.704;2023-05-18T11:22:51;9.18;;;3.88;;
50495;SDS011;38806;51.554;5.704;2023-05-18T11:24:51;13.52;;;6.50;;
50495;SDS011;38806;51.554;5.704;2023-05-18T11:26:52;9.60;;;5.40;;
50495;SDS011;38806;51.554;5.704;2023-05-18T11:28:53;7.10;;;4.57;;
50495;SDS011;38806;51.554;5.704;2023-05-18T11:30:53;8.53;;;4.90;;
50495;SDS011;38806;51.554;5.704;2023-05-18T11:35:08;8.82;;;4.22;;
50495;SDS011;38806;51.554;5.704;2023-05-18T11:39:52;10.50;;;5.05;;
50495;SDS011;38806;51.554;5.704;2023-05-18T11:41:57;7.75;;;5.00;;
50495;SDS011;38806;51.554;5.704;2023-05-18T11:44:05;11.73;;;5.47;;
50495;SDS011;38806;51.554;5.704;2023-05-18T11:46:09;8.80;;;4.85;;
50495;SDS011;38806;51.554;5.704;2023-05-18T11:48:16;11.40;;;4.80;;
50495;SDS011;38806;51.554;5.704;2023-05-18T11:50:19;11.80;;;4.82;;
50495;SDS011;38806;51.554;5.704;2023-05-18T11:52:23;8.77;;;4.57;;
50495;SDS011;38806;51.554;5.704;2023-05-18T11:54:27;9.35;;;4.88;;
50495;SDS011;38806;51.554;5.704;2023-05-18T11:56:30;7.07;;;4.50;;
50495;SDS011;38806;51.554;5.704;2023-05-18T11:58:32;9.20;;;5.80;;
50495;SDS011;38806;51.554;5.704;2023-05-18T12:00:32;9.60;;;4.40;;
50495;SDS011;38806;51.554;5.704;2023-05-18T12:02:32;11.27;;;4.60;;
50495;SDS011;38806;51.554;5.704;2023-05-18T12:04:33;11.13;;;4.55;;
50495;SDS011;38806;51.554;5.704;2023-05-18T12:06:33;6.82;;;4.68;;
50495;SDS011;38806;51.554;5.704;2023-05-18T12:08:34;7.97;;;4.75;;
50495;SDS011;38806;51.554;5.704;2023-05-18T12:10:35;8.43;;;4.25;;
50495;SDS011;38806;51.554;5.704;2023-05-18T12:12:36;9.98;;;4.60;;
50495;SDS011;38806;51.554;5.704;2023-05-18T12:14:37;9.80;;;4.55;;
50495;SDS011;38806;51.554;5.704;2023-05-18T12:16:40;8.13;;;4.32;;